sensor_id;sensor_type;location;lat;lon;timestamp;pressure;altitude;pressure_sealevel;temperature;humidity
46379;BME280;32084;42.254;22.744;2023-02-20T00:00:59;95542.28;;;11.18;54.15
46379;BME280;32084;42.254;22.744;2023-02-20T00:03:25;95542.75;;;11.13;54.23
46379;BME280;32084;42.254;22.744;2023-02-20T00:05:51;95542.53;;;11.07;54.07
46379;BME280;32084;42.254;22.744;2023-02-20T00:08:17;95539.56;;;10.92;55.11
46379;BME280;32084;42.254;22.744;2023-02-20T00:10:43;95543.44;;;10.98;55.09
46379;BME280;32084;42.254;22.744;2023-02-20T00:13:10;95544.97;;;11.00;54.92
46379;BME280;32084;42.254;22.744;2023-02-20T00:15:36;95549.34;;;11.01;54.94
46379;BME280;32084;42.254;22.744;2023-02-20T00:18:02;95548.81;;;10.98;54.93
46379;BME280;32084;42.254;22.744;2023-02-20T00:20:28;95552.94;;;10.92;55.61
46379;BME280;32084;42.254;22.744;2023-02-20T00:22:55;95560.41;;;10.88;55.54
46379;BME280;32084;42.254;22.744;2023-02-20T00:25:21;95575.69;;;10.96;55.37
46379;BME280;32084;42.254;22.744;2023-02-20T00:27:47;95575.09;;;10.84;55.54
46379;BME280;32084;42.254;22.744;2023-02-20T00:30:20;95577.00;;;10.74;56.36
46379;BME280;32084;42.254;22.744;2023-02-20T00:32:46;95581.13;;;10.68;56.79
46379;BME280;32084;42.254;22.744;2023-02-20T00:35:13;95583.94;;;10.67;56.56
46379;BME280;32084;42.254;22.744;2023-02-20T00:37:39;95592.88;;;10.75;56.60
46379;BME280;32084;42.254;22.744;2023-02-20T00:40:05;95580.53;;;10.74;56.43
46379;BME280;32084;42.254;22.744;2023-02-20T00:42:32;95588.47;;;10.84;56.05
46379;BME280;32084;42.254;22.744;2023-02-20T00:44:58;95587.72;;;10.92;55.95
46379;BME280;32084;42.254;22.744;2023-02-20T00:47:24;95583.50;;;10.89;56.04
46379;BME280;32084;42.254;22.744;2023-02-20T00:49:50;95588.03;;;10.89;56.03
46379;BME280;32084;42.254;22.744;2023-02-20T00:52:16;95579.28;;;10.87;56.25
46379;BME280;32084;42.254;22.744;2023-02-20T00:54:42;95574.81;;;10.87;56.19
46379;BME280;32084;42.254;22.744;2023-02-20T00:57:08;95574.66;;;10.89;56.16
46379;BME280;32084;42.254;22.744;2023-02-20T00:59:34;95567.59;;;10.88;56.13
46379;BME280;32084;42.254;22.744;2023-02-20T01:02:00;95566.25;;;10.84;56.28
46379;BME280;32084;42.254;22.744;2023-02-20T01:04:26;95565.22;;;10.67;56.81
46379;BME280;32084;42.254;22.744;2023-02-20T01:06:52;95564.44;;;10.57;56.81
46379;BME280;32084;42.254;22.744;2023-02-20T01:09:18;95571.94;;;10.53;56.97
46379;BME280;32084;42.254;22.744;2023-02-20T01:11:44;95569.56;;;10.50;56.95
46379;BME280;32084;42.254;22.744;2023-02-20T01:14:11;95563.53;;;10.48;56.61
46379;BME280;32084;42.254;22.744;2023-02-20T01:16:42;95568.25;;;10.36;57.00
46379;BME280;32084;42.254;22.744;2023-02-20T01:19:08;95569.59;;;10.12;57.33
46379;BME280;32084;42.254;22.744;2023-02-20T01:21:34;95560.84;;;9.92;57.83
46379;BME280;32084;42.254;22.744;2023-02-20T01:24:00;95568.84;;;9.92;57.88
46379;BME280;32084;42.254;22.744;2023-02-20T01:26:26;95569.41;;;9.86;58.02
46379;BME280;32084;42.254;22.744;2023-02-20T01:28:52;95572.91;;;9.49;58.54
46379;BME280;32084;42.254;22.744;2023-02-20T01:31:18;95578.84;;;9.24;59.49
46379;BME280;32084;42.254;22.744;2023-02-20T01:33:44;95587.44;;;8.78;59.93
46379;BME280;32084;42.254;22.744;2023-02-20T01:36:10;95585.03;;;8.66;60.81
46379;BME280;32084;42.254;22.744;2023-02-20T01:38:38;95586.13;;;8.63;61.10
46379;BME280;32084;42.254;22.744;2023-02-20T01:41:04;95569.75;;;8.58;61.13
46379;BME280;32084;42.254;22.744;2023-02-20T01:43:30;95566.25;;;8.67;60.71
46379;BME280;32084;42.254;22.744;2023-02-20T01:48:42;95577.03;;;8.56;59.78
46379;BME280;32084;42.254;22.744;2023-02-20T01:51:08;95591.28;;;7.95;61.00
46379;BME280;32084;42.254;22.744;2023-02-20T01:53:34;95576.28;;;7.63;62.60
46379;BME280;32084;42.254;22.744;2023-02-20T01:56:01;95575.03;;;7.67;63.33
46379;BME280;32084;42.254;22.744;2023-02-20T01:58:49;95584.47;;;7.81;63.74
46379;BME280;32084;42.254;22.744;2023-02-20T02:01:14;95592.47;;;7.50;62.06
46379;BME280;32084;42.254;22.744;2023-02-20T02:03:42;95589.69;;;7.52;65.54
46379;BME280;32084;42.254;22.744;2023-02-20T02:06:09;95589.63;;;7.73;63.41
46379;BME280;32084;42.254;22.744;2023-02-20T02:08:36;95595.09;;;7.71;63.73
46379;BME280;32084;42.254;22.744;2023-02-20T02:11:05;95600.41;;;7.71;64.00
46379;BME280;32084;42.254;22.744;2023-02-20T02:13:32;95599.59;;;7.71;63.94
46379;BME280;32084;42.254;22.744;2023-02-20T02:26:45;95635.94;;;7.60;65.14
46379;BME280;32084;42.254;22.744;2023-02-20T02:36:51;95653.22;;;8.28;69.71
46379;BME280;32084;42.254;22.744;2023-02-20T02:41:51;95666.75;;;8.46;70.90
46379;BME280;32084;42.254;22.744;2023-02-20T02:51:56;95689.28;;;8.72;70.84
46379;BME280;32084;42.254;22.744;2023-02-20T02:54:24;95692.53;;;8.76;71.52
46379;BME280;32084;42.254;22.744;2023-02-20T02:59:38;95695.50;;;8.83;71.21
46379;BME280;32084;42.254;22.744;2023-02-20T03:02:04;95691.84;;;8.93;70.74
46379;BME280;32084;42.254;22.744;2023-02-20T03:04:33;95698.47;;;8.99;71.29
46379;BME280;32084;42.254;22.744;2023-02-20T03:07:08;95696.09;;;9.06;70.71
46379;BME280;32084;42.254;22.744;2023-02-20T03:09:36;95697.50;;;9.10;70.68
46379;BME280;32084;42.254;22.744;2023-02-20T03:12:04;95702.44;;;9.14;70.38
46379;BME280;32084;42.254;22.744;2023-02-20T03:17:52;95702.81;;;9.00;71.50
46379;BME280;32084;42.254;22.744;2023-02-20T03:20:20;95717.44;;;8.96;70.69
46379;BME280;32084;42.254;22.744;2023-02-20T03:25:18;95702.69;;;9.02;69.57
46379;BME280;32084;42.254;22.744;2023-02-20T03:27:58;95704.09;;;9.06;69.12
46379;BME280;32084;42.254;22.744;2023-02-20T03:30:42;95713.06;;;8.95;68.93
46379;BME280;32084;42.254;22.744;2023-02-20T03:36:14;95721.63;;;8.89;67.41
46379;BME280;32084;42.254;22.744;2023-02-20T03:39:02;95728.81;;;8.98;67.08
46379;BME280;32084;42.254;22.744;2023-02-20T03:41:47;95736.09;;;8.96;67.15
46379;BME280;32084;42.254;22.744;2023-02-20T03:44:32;95751.69;;;9.10;66.61
46379;BME280;32084;42.254;22.744;2023-02-20T03:46:59;95746.66;;;9.17;65.91
46379;BME280;32084;42.254;22.744;2023-02-20T03:49:27;95744.69;;;9.19;66.59
46379;BME280;32084;42.254;22.744;2023-02-20T03:51:55;95739.25;;;9.30;65.78
46379;BME280;32084;42.254;22.744;2023-02-20T03:54:24;95752.47;;;9.42;64.98
46379;BME280;32084;42.254;22.744;2023-02-20T03:56:52;95745.72;;;9.37;65.04
46379;BME280;32084;42.254;22.744;2023-02-20T03:59:21;95751.31;;;9.44;64.28
46379;BME280;32084;42.254;22.744;2023-02-20T04:01:48;95754.84;;;9.45;64.40
46379;BME280;32084;42.254;22.744;2023-02-20T04:04:17;95753.03;;;9.45;64.17
46379;BME280;32084;42.254;22.744;2023-02-20T04:06:46;95753.28;;;9.42;63.20
46379;BME280;32084;42.254;22.744;2023-02-20T04:09:15;95754.13;;;9.33;62.71
46379;BME280;32084;42.254;22.744;2023-02-20T04:12:01;95755.38;;;9.29;63.11
46379;BME280;32084;42.254;22.744;2023-02-20T04:14:29;95758.94;;;9.39;62.30
46379;BME280;32084;42.254;22.744;2023-02-20T04:17:00;95759.06;;;9.37;61.78
46379;BME280;32084;42.254;22.744;2023-02-20T04:19:28;95770.69;;;9.27;62.26
46379;BME280;32084;42.254;22.744;2023-02-20T04:21:55;95763.94;;;9.23;62.24
46379;BME280;32084;42.254;22.744;2023-02-20T04:24:25;95768.41;;;9.12;62.41
46379;BME280;32084;42.254;22.744;2023-02-20T04:26:54;95765.47;;;9.15;61.67
46379;BME280;32084;42.254;22.744;2023-02-20T04:29:21;95769.53;;;9.10;61.74
46379;BME280;32084;42.254;22.744;2023-02-20T04:31:47;95762.09;;;9.13;61.44
46379;BME280;32084;42.254;22.744;2023-02-20T04:34:13;95768.13;;;9.15;61.21
46379;BME280;32084;42.254;22.744;2023-02-20T04:36:39;95762.09;;;9.13;60.78
46379;BME280;32084;42.254;22.744;2023-02-20T04:39:05;95758.59;;;9.13;60.49
46379;BME280;32084;42.254;22.744;2023-02-20T04:41:31;95762.81;;;9.15;60.01
46379;BME280;32084;42.254;22.744;2023-02-20T04:43:57;95751.84;;;9.09;59.50
46379;BME280;32084;42.254;22.744;2023-02-20T04:46:42;95759.31;;;9.15;58.56
46379;BME280;32084;42.254;22.744;2023-02-20T04:49:08;95763.81;;;9.14;58.44
46379;BME280;32084;42.254;22.744;2023-02-20T04:51:34;95765.34;;;9.17;58.43
46379;BME280;32084;42.254;22.744;2023-02-20T04:54:00;95763.38;;;9.19;58.03
46379;BME280;32084;42.254;22.744;2023-02-20T04:56:26;95767.19;;;9.16;58.07
46379;BME280;32084;42.254;22.744;2023-02-20T04:58:52;95778.09;;;9.13;58.31
46379;BME280;32084;42.254;22.744;2023-02-20T05:01:18;95789.19;;;9.09;58.23
46379;BME280;32084;42.254;22.744;2023-02-20T05:03:44;95785.28;;;9.13;58.16
46379;BME280;32084;42.254;22.744;2023-02-20T05:06:10;95793.00;;;9.16;58.13
46379;BME280;32084;42.254;22.744;2023-02-20T05:08:37;95801.19;;;9.24;57.34
46379;BME280;32084;42.254;22.744;2023-02-20T05:11:03;95799.34;;;9.25;57.84
46379;BME280;32084;42.254;22.744;2023-02-20T05:13:29;95814.78;;;9.31;57.47
46379;BME280;32084;42.254;22.744;2023-02-20T05:15:55;95804.13;;;9.31;57.36
46379;BME280;32084;42.254;22.744;2023-02-20T05:18:27;95808.19;;;9.35;57.12
46379;BME280;32084;42.254;22.744;2023-02-20T05:20:53;95817.66;;;9.39;56.82
46379;BME280;32084;42.254;22.744;2023-02-20T05:23:38;95817.09;;;9.45;56.52
46379;BME280;32084;42.254;22.744;2023-02-20T05:26:10;95825.25;;;9.53;56.17
46379;BME280;32084;42.254;22.744;2023-02-20T05:28:37;95817.78;;;9.47;56.30
46379;BME280;32084;42.254;22.744;2023-02-20T05:31:05;95813.41;;;9.46;56.53
46379;BME280;32084;42.254;22.744;2023-02-20T05:33:31;95827.06;;;9.43;56.63
46379;BME280;32084;42.254;22.744;2023-02-20T05:35:58;95828.03;;;9.42;56.83
46379;BME280;32084;42.254;22.744;2023-02-20T05:38:24;95827.34;;;9.50;56.72
46379;BME280;32084;42.254;22.744;2023-02-20T05:40:50;95828.63;;;9.65;56.30
46379;BME280;32084;42.254;22.744;2023-02-20T05:43:16;95830.72;;;9.62;56.33
46379;BME280;32084;42.254;22.744;2023-02-20T05:45:43;95840.56;;;9.61;56.53
46379;BME280;32084;42.254;22.744;2023-02-20T05:48:12;95842.84;;;9.66;55.93
46379;BME280;32084;42.254;22.744;2023-02-20T05:50:38;95847.31;;;9.75;55.66
46379;BME280;32084;42.254;22.744;2023-02-20T05:53:04;95851.44;;;9.79;55.48
46379;BME280;32084;42.254;22.744;2023-02-20T05:55:30;95834.97;;;9.84;55.11
46379;BME280;32084;42.254;22.744;2023-02-20T05:57:56;95841.00;;;9.95;55.28
46379;BME280;32084;42.254;22.744;2023-02-20T06:00:22;95842.97;;;10.13;54.61
46379;BME280;32084;42.254;22.744;2023-02-20T06:02:48;95844.38;;;10.56;53.45
46379;BME280;32084;42.254;22.744;2023-02-20T06:05:15;95858.66;;;11.49;51.16
46379;BME280;32084;42.254;22.744;2023-02-20T06:07:44;95860.41;;;12.58;48.51
46379;BME280;32084;42.254;22.744;2023-02-20T06:10:11;95876.91;;;13.24;46.45
46379;BME280;32084;42.254;22.744;2023-02-20T06:12:37;95882.94;;;13.44;46.07
46379;BME280;32084;42.254;22.744;2023-02-20T06:15:03;95897.16;;;12.84;47.34
46379;BME280;32084;42.254;22.744;2023-02-20T06:17:32;95890.88;;;11.85;49.98
46379;BME280;32084;42.254;22.744;2023-02-20T06:19:58;95893.97;;;11.35;52.03
46379;BME280;32084;42.254;22.744;2023-02-20T06:22:25;95902.97;;;11.06;52.91
46379;BME280;32084;42.254;22.744;2023-02-20T06:24:51;95911.53;;;11.00;53.25
46379;BME280;32084;42.254;22.744;2023-02-20T06:27:17;95914.16;;;10.72;53.91
46379;BME280;32084;42.254;22.744;2023-02-20T06:29:45;95915.28;;;10.80;54.00
46379;BME280;32084;42.254;22.744;2023-02-20T06:32:11;95914.41;;;10.79;53.95
46379;BME280;32084;42.254;22.744;2023-02-20T06:34:37;95907.56;;;10.67;54.06
46379;BME280;32084;42.254;22.744;2023-02-20T06:37:04;95907.44;;;10.59;54.85
46379;BME280;32084;42.254;22.744;2023-02-20T06:39:31;95914.84;;;10.74;54.51
46379;BME280;32084;42.254;22.744;2023-02-20T06:41:57;95911.38;;;11.21;53.11
46379;BME280;32084;42.254;22.744;2023-02-20T06:44:23;95906.22;;;11.38;52.06
46379;BME280;32084;42.254;22.744;2023-02-20T06:46:49;95905.72;;;11.89;50.90
46379;BME280;32084;42.254;22.744;2023-02-20T06:49:15;95915.03;;;13.27;47.34
46379;BME280;32084;42.254;22.744;2023-02-20T06:51:41;95950.66;;;16.89;40.39
46379;BME280;32084;42.254;22.744;2023-02-20T06:54:09;95957.66;;;18.77;37.42
46379;BME280;32084;42.254;22.744;2023-02-20T06:56:36;95966.81;;;19.97;35.00
46379;BME280;32084;42.254;22.744;2023-02-20T06:59:03;95976.13;;;19.81;34.52
46379;BME280;32084;42.254;22.744;2023-02-20T07:01:30;95978.09;;;18.95;35.74
46379;BME280;32084;42.254;22.744;2023-02-20T07:03:57;95980.53;;;18.53;35.68
46379;BME280;32084;42.254;22.744;2023-02-20T07:06:24;95979.69;;;17.48;36.63
46379;BME280;32084;42.254;22.744;2023-02-20T07:08:50;95981.00;;;17.52;36.30
46379;BME280;32084;42.254;22.744;2023-02-20T07:11:17;95992.38;;;17.86;34.91
46379;BME280;32084;42.254;22.744;2023-02-20T07:13:44;95999.50;;;18.38;34.39
46379;BME280;32084;42.254;22.744;2023-02-20T07:16:10;95995.78;;;18.39;34.28
46379;BME280;32084;42.254;22.744;2023-02-20T07:18:36;95993.63;;;17.75;34.76
46379;BME280;32084;42.254;22.744;2023-02-20T07:21:02;95990.53;;;17.63;34.98
46379;BME280;32084;42.254;22.744;2023-02-20T07:23:28;95990.56;;;16.79;36.61
46379;BME280;32084;42.254;22.744;2023-02-20T07:25:54;95990.50;;;16.87;36.90
46379;BME280;32084;42.254;22.744;2023-02-20T07:28:21;95982.91;;;17.29;35.89
46379;BME280;32084;42.254;22.744;2023-02-20T07:30:47;95979.16;;;17.15;35.74
46379;BME280;32084;42.254;22.744;2023-02-20T07:33:16;95977.41;;;16.45;36.60
46379;BME280;32084;42.254;22.744;2023-02-20T07:35:43;95970.88;;;16.39;36.25
46379;BME280;32084;42.254;22.744;2023-02-20T07:38:09;95974.00;;;16.19;36.61
46379;BME280;32084;42.254;22.744;2023-02-20T07:40:35;95964.84;;;15.97;36.15
46379;BME280;32084;42.254;22.744;2023-02-20T07:43:01;95962.81;;;15.91;36.51
46379;BME280;32084;42.254;22.744;2023-02-20T07:45:27;95956.88;;;16.04;36.02
46379;BME280;32084;42.254;22.744;2023-02-20T07:47:54;95956.81;;;15.65;35.75
46379;BME280;32084;42.254;22.744;2023-02-20T07:50:20;95954.81;;;15.58;35.85
46379;BME280;32084;42.254;22.744;2023-02-20T07:52:46;95953.91;;;15.91;35.58
46379;BME280;32084;42.254;22.744;2023-02-20T07:55:15;95958.28;;;15.92;35.36
46379;BME280;32084;42.254;22.744;2023-02-20T07:57:41;95945.81;;;15.91;35.63
46379;BME280;32084;42.254;22.744;2023-02-20T11:12:43;95925.97;;;13.95;38.06
46379;BME280;32084;42.254;22.744;2023-02-20T11:15:15;95922.09;;;13.97;38.32
46379;BME280;32084;42.254;22.744;2023-02-20T11:17:42;95921.28;;;14.05;37.44
46379;BME280;32084;42.254;22.744;2023-02-20T11:22:53;95912.00;;;13.91;37.48
46379;BME280;32084;42.254;22.744;2023-02-20T11:27:57;95912.63;;;14.44;37.57
46379;BME280;32084;42.254;22.744;2023-02-20T11:30:31;95910.66;;;14.79;36.23
46379;BME280;32084;42.254;22.744;2023-02-20T11:35:34;95911.72;;;15.42;35.57
46379;BME280;32084;42.254;22.744;2023-02-20T11:40:46;95910.25;;;15.31;35.79
46379;BME280;32084;42.254;22.744;2023-02-20T11:45:39;95912.22;;;15.46;35.48
46379;BME280;32084;42.254;22.744;2023-02-20T11:48:07;95910.22;;;15.39;34.88
46379;BME280;32084;42.254;22.744;2023-02-20T11:50:44;95900.63;;;15.45;34.70
46379;BME280;32084;42.254;22.744;2023-02-20T11:53:20;95900.28;;;15.40;34.31
46379;BME280;32084;42.254;22.744;2023-02-20T11:55:47;95906.34;;;15.42;34.55
46379;BME280;32084;42.254;22.744;2023-02-20T11:58:23;95908.13;;;15.74;34.62
46379;BME280;32084;42.254;22.744;2023-02-20T12:00:51;95915.81;;;15.86;34.61
46379;BME280;32084;42.254;22.744;2023-02-20T12:03:20;95911.56;;;15.52;34.83
46379;BME280;32084;42.254;22.744;2023-02-20T12:05:46;95907.63;;;14.82;35.63
46379;BME280;32084;42.254;22.744;2023-02-20T12:10:55;95902.56;;;14.79;36.59
46379;BME280;32084;42.254;22.744;2023-02-20T12:13:25;95918.88;;;14.77;35.67
46379;BME280;32084;42.254;22.744;2023-02-20T12:16:12;95899.97;;;14.28;36.41
46379;BME280;32084;42.254;22.744;2023-02-20T12:19:20;95903.44;;;13.96;37.45
46379;BME280;32084;42.254;22.744;2023-02-20T12:29:11;95916.72;;;14.64;36.84
46379;BME280;32084;42.254;22.744;2023-02-20T12:36:39;95893.03;;;13.93;37.30
46379;BME280;32084;42.254;22.744;2023-02-20T12:47:00;95895.44;;;14.12;37.41
46379;BME280;32084;42.254;22.744;2023-02-20T12:57:14;95882.81;;;13.54;37.17
46379;BME280;32084;42.254;22.744;2023-02-20T13:02:26;95878.97;;;14.15;37.74
46379;BME280;32084;42.254;22.744;2023-02-20T13:04:56;95882.50;;;14.08;37.36
46379;BME280;32084;42.254;22.744;2023-02-20T13:07:40;95881.56;;;13.82;37.79
46379;BME280;32084;42.254;22.744;2023-02-20T13:10:13;95874.19;;;13.84;37.60
46379;BME280;32084;42.254;22.744;2023-02-20T13:12:40;95874.22;;;13.93;37.54
46379;BME280;32084;42.254;22.744;2023-02-20T13:22:43;95880.63;;;14.08;37.03
46379;BME280;32084;42.254;22.744;2023-02-20T13:30:32;95878.09;;;14.06;37.14
46379;BME280;32084;42.254;22.744;2023-02-20T13:33:11;95867.16;;;14.00;37.52
46379;BME280;32084;42.254;22.744;2023-02-20T13:38:11;95874.53;;;13.98;37.70
46379;BME280;32084;42.254;22.744;2023-02-20T13:41:01;95865.31;;;14.00;37.10
46379;BME280;32084;42.254;22.744;2023-02-20T13:43:25;95871.16;;;13.88;37.58
46379;BME280;32084;42.254;22.744;2023-02-20T13:56:15;95868.31;;;13.38;37.88
46379;BME280;32084;42.254;22.744;2023-02-20T13:58:43;95877.34;;;13.37;37.83
46379;BME280;32084;42.254;22.744;2023-02-20T14:01:09;95872.88;;;13.46;37.46
46379;BME280;32084;42.254;22.744;2023-02-20T14:03:35;95865.03;;;13.53;37.75
46379;BME280;32084;42.254;22.744;2023-02-20T14:06:12;95871.34;;;13.43;37.70
46379;BME280;32084;42.254;22.744;2023-02-20T14:08:39;95870.63;;;13.33;37.88
46379;BME280;32084;42.254;22.744;2023-02-20T14:13:35;95871.88;;;13.21;38.07
46379;BME280;32084;42.254;22.744;2023-02-20T14:16:02;95867.16;;;13.15;38.25
46379;BME280;32084;42.254;22.744;2023-02-20T14:18:30;95863.94;;;13.11;38.51
46379;BME280;32084;42.254;22.744;2023-02-20T14:24:20;95871.47;;;13.07;38.49
46379;BME280;32084;42.254;22.744;2023-02-20T14:26:47;95864.78;;;13.12;38.50
46379;BME280;32084;42.254;22.744;2023-02-20T14:29:20;95865.19;;;13.25;38.25
46379;BME280;32084;42.254;22.744;2023-02-20T14:31:49;95866.13;;;13.34;38.01
46379;BME280;32084;42.254;22.744;2023-02-20T14:41:59;95878.16;;;13.03;38.47
46379;BME280;32084;42.254;22.744;2023-02-20T14:44:26;95872.06;;;12.93;38.85
46379;BME280;32084;42.254;22.744;2023-02-20T14:46:58;95867.03;;;12.90;39.23
46379;BME280;32084;42.254;22.744;2023-02-20T14:49:27;95862.63;;;12.89;39.06
46379;BME280;32084;42.254;22.744;2023-02-20T14:52:15;95869.00;;;12.88;38.82
46379;BME280;32084;42.254;22.744;2023-02-20T14:54:42;95868.31;;;12.86;38.85
46379;BME280;32084;42.254;22.744;2023-02-20T14:57:11;95855.53;;;12.80;39.06
46379;BME280;32084;42.254;22.744;2023-02-20T14:59:38;95865.03;;;12.74;39.26
46379;BME280;32084;42.254;22.744;2023-02-20T15:04:30;95871.25;;;12.75;39.21
46379;BME280;32084;42.254;22.744;2023-02-20T15:07:03;95861.28;;;12.67;39.60
46379;BME280;32084;42.254;22.744;2023-02-20T15:09:50;95853.47;;;12.74;39.57
46379;BME280;32084;42.254;22.744;2023-02-20T15:12:21;95844.41;;;12.75;39.56
46379;BME280;32084;42.254;22.744;2023-02-20T15:14:52;95853.47;;;12.74;39.87
46379;BME280;32084;42.254;22.744;2023-02-20T15:17:21;95852.56;;;12.65;40.02
46379;BME280;32084;42.254;22.744;2023-02-20T15:19:47;95859.28;;;12.69;39.64
46379;BME280;32084;42.254;22.744;2023-02-20T15:24:49;95866.09;;;12.55;39.83
46379;BME280;32084;42.254;22.744;2023-02-20T15:27:19;95876.44;;;12.50;39.84
46379;BME280;32084;42.254;22.744;2023-02-20T15:32:34;95878.16;;;12.33;39.97
46379;BME280;32084;42.254;22.744;2023-02-20T15:35:00;95874.84;;;12.21;40.32
46379;BME280;32084;42.254;22.744;2023-02-20T15:37:30;95877.81;;;12.00;40.62
46379;BME280;32084;42.254;22.744;2023-02-20T15:40:05;95867.88;;;11.93;40.89
46379;BME280;32084;42.254;22.744;2023-02-20T15:42:31;95872.53;;;11.90;40.91
46379;BME280;32084;42.254;22.744;2023-02-20T15:44:57;95876.22;;;11.80;40.97
46379;BME280;32084;42.254;22.744;2023-02-20T15:47:23;95879.47;;;11.83;40.83
46379;BME280;32084;42.254;22.744;2023-02-20T15:49:50;95879.84;;;11.70;41.26
46379;BME280;32084;42.254;22.744;2023-02-20T15:52:18;95878.28;;;11.68;41.25
46379;BME280;32084;42.254;22.744;2023-02-20T15:54:46;95879.44;;;11.65;41.69
46379;BME280;32084;42.254;22.744;2023-02-20T15:57:16;95873.59;;;11.52;41.77
46379;BME280;32084;42.254;22.744;2023-02-20T15:59:43;95883.22;;;11.45;42.02
46379;BME280;32084;42.254;22.744;2023-02-20T16:02:13;95880.25;;;11.38;42.53
46379;BME280;32084;42.254;22.744;2023-02-20T16:04:40;95884.25;;;11.34;42.72
46379;BME280;32084;42.254;22.744;2023-02-20T16:07:06;95892.41;;;11.42;42.68
46379;BME280;32084;42.254;22.744;2023-02-20T16:09:32;95899.56;;;11.42;42.57
46379;BME280;32084;42.254;22.744;2023-02-20T16:11:58;95898.78;;;11.31;42.38
46379;BME280;32084;42.254;22.744;2023-02-20T16:14:24;95889.91;;;11.31;42.57
46379;BME280;32084;42.254;22.744;2023-02-20T16:16:51;95899.22;;;11.27;42.40
46379;BME280;32084;42.254;22.744;2023-02-20T16:19:19;95892.03;;;11.27;42.45
46379;BME280;32084;42.254;22.744;2023-02-20T16:21:45;95895.75;;;11.07;43.10
46379;BME280;32084;42.254;22.744;2023-02-20T16:24:11;95897.47;;;11.08;42.95
46379;BME280;32084;42.254;22.744;2023-02-20T16:26:38;95889.56;;;11.06;43.25
46379;BME280;32084;42.254;22.744;2023-02-20T16:29:07;95891.03;;;10.91;43.11
46379;BME280;32084;42.254;22.744;2023-02-20T16:34:22;95888.50;;;10.89;43.40
46379;BME280;32084;42.254;22.744;2023-02-20T16:36:48;95892.00;;;10.90;43.55
46379;BME280;32084;42.254;22.744;2023-02-20T16:39:14;95890.63;;;10.86;43.50
46379;BME280;32084;42.254;22.744;2023-02-20T16:41:40;95893.56;;;10.83;43.60
46379;BME280;32084;42.254;22.744;2023-02-20T16:44:13;95897.25;;;10.82;43.39
46379;BME280;32084;42.254;22.744;2023-02-20T16:46:39;95904.84;;;10.77;43.45
46379;BME280;32084;42.254;22.744;2023-02-20T16:49:05;95909.78;;;10.71;43.57
46379;BME280;32084;42.254;22.744;2023-02-20T16:51:31;95905.28;;;10.62;43.60
46379;BME280;32084;42.254;22.744;2023-02-20T16:53:57;95903.88;;;10.58;43.72
46379;BME280;32084;42.254;22.744;2023-02-20T16:56:23;95902.06;;;10.49;43.83
46379;BME280;32084;42.254;22.744;2023-02-20T16:58:49;95905.56;;;10.30;44.79
46379;BME280;32084;42.254;22.744;2023-02-20T17:01:17;95905.31;;;10.23;45.03
46379;BME280;32084;42.254;22.744;2023-02-20T17:03:44;95902.63;;;10.04;44.85
46379;BME280;32084;42.254;22.744;2023-02-20T17:06:10;95903.84;;;9.80;45.84
46379;BME280;32084;42.254;22.744;2023-02-20T17:08:36;95906.47;;;9.61;46.33
46379;BME280;32084;42.254;22.744;2023-02-20T17:11:03;95900.81;;;9.44;46.72
46379;BME280;32084;42.254;22.744;2023-02-20T17:13:29;95902.25;;;9.17;47.00
46379;BME280;32084;42.254;22.744;2023-02-20T17:15:55;95898.03;;;9.15;47.42
46379;BME280;32084;42.254;22.744;2023-02-20T17:18:21;95910.22;;;9.08;48.10
46379;BME280;32084;42.254;22.744;2023-02-20T17:20:47;95905.78;;;8.66;47.72
46379;BME280;32084;42.254;22.744;2023-02-20T17:23:13;95898.53;;;8.36;48.02
46379;BME280;32084;42.254;22.744;2023-02-20T17:25:39;95901.72;;;8.30;47.86
46379;BME280;32084;42.254;22.744;2023-02-20T17:28:05;95900.06;;;8.17;48.55
46379;BME280;32084;42.254;22.744;2023-02-20T17:30:31;95896.56;;;8.17;48.65
46379;BME280;32084;42.254;22.744;2023-02-20T17:32:57;95909.91;;;8.06;48.63
46379;BME280;32084;42.254;22.744;2023-02-20T17:35:24;95899.53;;;7.70;49.07
46379;BME280;32084;42.254;22.744;2023-02-20T17:37:50;95891.25;;;7.18;50.11
46379;BME280;32084;42.254;22.744;2023-02-20T17:40:16;95899.94;;;7.09;50.08
46379;BME280;32084;42.254;22.744;2023-02-20T17:42:42;95894.03;;;7.17;50.13
46379;BME280;32084;42.254;22.744;2023-02-20T17:45:08;95886.91;;;7.17;50.52
46379;BME280;32084;42.254;22.744;2023-02-20T17:47:34;95886.91;;;7.17;51.39
46379;BME280;32084;42.254;22.744;2023-02-20T17:50:02;95887.97;;;7.15;51.41
46379;BME280;32084;42.254;22.744;2023-02-20T17:52:28;95889.69;;;6.82;51.46
46379;BME280;32084;42.254;22.744;2023-02-20T17:54:54;95886.19;;;6.70;52.18
46379;BME280;32084;42.254;22.744;2023-02-20T17:57:21;95896.31;;;6.76;52.18
46379;BME280;32084;42.254;22.744;2023-02-20T17:59:47;95891.13;;;6.86;51.72
46379;BME280;32084;42.254;22.744;2023-02-20T18:02:14;95884.59;;;6.90;51.78
46379;BME280;32084;42.254;22.744;2023-02-20T18:04:41;95885.09;;;6.84;52.09
46379;BME280;32084;42.254;22.744;2023-02-20T18:07:07;95885.91;;;6.39;52.47
46379;BME280;32084;42.254;22.744;2023-02-20T18:09:33;95888.88;;;5.99;53.48
46379;BME280;32084;42.254;22.744;2023-02-20T18:12:00;95885.72;;;5.70;54.45
46379;BME280;32084;42.254;22.744;2023-02-20T18:14:26;95880.47;;;5.57;54.99
46379;BME280;32084;42.254;22.744;2023-02-20T18:16:53;95881.19;;;5.59;55.40
46379;BME280;32084;42.254;22.744;2023-02-20T18:19:19;95875.31;;;5.91;55.24
46379;BME280;32084;42.254;22.744;2023-02-20T18:21:45;95873.19;;;6.32;54.20
46379;BME280;32084;42.254;22.744;2023-02-20T18:24:17;95884.41;;;6.35;53.56
46379;BME280;32084;42.254;22.744;2023-02-20T18:26:43;95884.72;;;6.08;54.01
46379;BME280;32084;42.254;22.744;2023-02-20T18:29:09;95886.63;;;5.82;55.09
46379;BME280;32084;42.254;22.744;2023-02-20T18:31:35;95883.19;;;5.93;55.24